OITT

Tabriz International Airport

Airport
ICAO code
OITT
IATA Code
TBZ
Summary
ICAO Region
APAC
ICAO Territory
Location

Tabriz, Azarbayjan-e Sharqi

Serving
Tabriz
Elevation
4459 ft
Coordinates
38° 8' 2" N , 46° 14' 6" E
KCC
Metar
Observation
OITT 070030Z 09004KT 9999 SCT035 BKN080 01/M03 Q1022 A3018
Station
Tabriz
Date/Time
2022-12-07 00:30:00
Wind direction
90°
Wind speed
04 kts
Lowest cloud amount
scattered clouds
Temperature
1°C
Dew point
-3°C
Humidity
74%
QNH
1022 hPa
Weather condition
n/a

Airport serving Tabriz, Iran.

Climatology

Semi-arid climate (Köppen climate classification BSk)

Runways

Designator Length Width Surface Rops
12R/30L 3516 30 ASP Yes/Yes
12L/30R 3604 45 ASP Yes/Yes

Airport map

Aerial View

Airport accidents

SKYbrary Partners:

Safety knowledge contributed by: